sensor_id;sensor_type;location;lat;lon;timestamp;pressure;altitude;pressure_sealevel;temperature;humidity
13952;BME280;39535;52.192;9.886;2023-05-29T00:00:31;101150.91;;;16.24;70.39
13952;BME280;39535;52.192;9.886;2023-05-29T00:02:58;101138.59;;;16.24;70.42
13952;BME280;39535;52.192;9.886;2023-05-29T00:05:24;101143.13;;;16.19;70.49
13952;BME280;39535;52.192;9.886;2023-05-29T00:07:52;101137.22;;;16.13;71.33
13952;BME280;39535;52.192;9.886;2023-05-29T00:10:18;101145.38;;;16.03;71.24
13952;BME280;39535;52.192;9.886;2023-05-29T00:12:45;101132.13;;;16.06;70.98
13952;BME280;39535;52.192;9.886;2023-05-29T00:15:11;101139.94;;;16.10;70.93
13952;BME280;39535;52.192;9.886;2023-05-29T00:17:37;101147.88;;;16.08;70.89
13952;BME280;39535;52.192;9.886;2023-05-29T00:20:05;101152.47;;;16.01;70.46
13952;BME280;39535;52.192;9.886;2023-05-29T00:22:34;101152.56;;;15.98;70.37
13952;BME280;39535;52.192;9.886;2023-05-29T00:25:04;101165.97;;;15.91;70.64
13952;BME280;39535;52.192;9.886;2023-05-29T00:27:30;101167.78;;;15.88;70.71
13952;BME280;39535;52.192;9.886;2023-05-29T00:29:57;101164.38;;;15.85;71.21
13952;BME280;39535;52.192;9.886;2023-05-29T00:32:24;101174.84;;;15.86;70.90
13952;BME280;39535;52.192;9.886;2023-05-29T00:34:50;101173.44;;;15.75;71.37
13952;BME280;39535;52.192;9.886;2023-05-29T00:37:17;101168.22;;;15.72;71.32
13952;BME280;39535;52.192;9.886;2023-05-29T00:39:43;101177.91;;;15.71;70.77
13952;BME280;39535;52.192;9.886;2023-05-29T00:42:11;101190.34;;;15.66;70.66
13952;BME280;39535;52.192;9.886;2023-05-29T00:44:37;101192.22;;;15.61;70.31
13952;BME280;39535;52.192;9.886;2023-05-29T00:47:04;101206.44;;;15.54;70.88
13952;BME280;39535;52.192;9.886;2023-05-29T00:49:31;101210.00;;;15.53;71.18
13952;BME280;39535;52.192;9.886;2023-05-29T00:51:57;101207.31;;;15.54;71.08
13952;BME280;39535;52.192;9.886;2023-05-29T00:54:26;101203.00;;;15.52;71.34
13952;BME280;39535;52.192;9.886;2023-05-29T00:56:54;101202.22;;;15.48;71.08
13952;BME280;39535;52.192;9.886;2023-05-29T00:59:22;101205.69;;;15.50;71.04
13952;BME280;39535;52.192;9.886;2023-05-29T01:01:48;101206.78;;;15.41;70.83
13952;BME280;39535;52.192;9.886;2023-05-29T01:04:16;101206.31;;;15.25;71.04
13952;BME280;39535;52.192;9.886;2023-05-29T01:06:42;101207.41;;;15.18;71.53
13952;BME280;39535;52.192;9.886;2023-05-29T01:09:09;101203.00;;;15.19;71.78
13952;BME280;39535;52.192;9.886;2023-05-29T01:11:41;101199.81;;;15.06;72.46
13952;BME280;39535;52.192;9.886;2023-05-29T01:14:17;101194.50;;;15.07;72.32
13952;BME280;39535;52.192;9.886;2023-05-29T01:16:51;101198.47;;;14.89;73.11
13952;BME280;39535;52.192;9.886;2023-05-29T01:19:30;101169.53;;;14.91;73.40
13952;BME280;39535;52.192;9.886;2023-05-29T01:22:08;101162.50;;;14.90;73.23
13952;BME280;39535;52.192;9.886;2023-05-29T01:24:48;101167.75;;;14.92;72.57
13952;BME280;39535;52.192;9.886;2023-05-29T01:27:17;101176.66;;;14.86;72.65
13952;BME280;39535;52.192;9.886;2023-05-29T01:29:45;101192.44;;;14.84;72.27
13952;BME280;39535;52.192;9.886;2023-05-29T01:32:12;101203.72;;;14.89;71.69
13952;BME280;39535;52.192;9.886;2023-05-29T01:34:39;101221.25;;;14.91;71.68
13952;BME280;39535;52.192;9.886;2023-05-29T01:37:05;101217.03;;;14.83;71.69
13952;BME280;39535;52.192;9.886;2023-05-29T01:39:32;101219.69;;;14.80;71.76
13952;BME280;39535;52.192;9.886;2023-05-29T01:42:00;101235.47;;;14.80;71.45
13952;BME280;39535;52.192;9.886;2023-05-29T01:44:28;101248.06;;;14.67;71.70
13952;BME280;39535;52.192;9.886;2023-05-29T01:46:57;101253.31;;;14.67;71.64
13952;BME280;39535;52.192;9.886;2023-05-29T01:49:24;101251.81;;;14.54;71.83
13952;BME280;39535;52.192;9.886;2023-05-29T01:51:50;101256.06;;;14.63;71.71
13952;BME280;39535;52.192;9.886;2023-05-29T01:54:17;101260.50;;;14.59;71.76
13952;BME280;39535;52.192;9.886;2023-05-29T01:56:44;101258.72;;;14.60;71.34
13952;BME280;39535;52.192;9.886;2023-05-29T01:59:12;101267.47;;;14.60;71.73
13952;BME280;39535;52.192;9.886;2023-05-29T02:01:41;101260.41;;;14.62;71.66
13952;BME280;39535;52.192;9.886;2023-05-29T02:04:07;101264.88;;;14.59;71.14
13952;BME280;39535;52.192;9.886;2023-05-29T02:06:33;101278.16;;;14.51;71.03
13952;BME280;39535;52.192;9.886;2023-05-29T02:09:00;101285.09;;;14.55;71.03
13952;BME280;39535;52.192;9.886;2023-05-29T02:11:26;101278.06;;;14.56;70.77
13952;BME280;39535;52.192;9.886;2023-05-29T02:13:52;101278.22;;;14.48;71.39
13952;BME280;39535;52.192;9.886;2023-05-29T02:16:19;101279.13;;;14.47;71.07
13952;BME280;39535;52.192;9.886;2023-05-29T02:18:47;101294.16;;;14.39;71.13
13952;BME280;39535;52.192;9.886;2023-05-29T02:21:13;101295.09;;;14.36;70.54
13952;BME280;39535;52.192;9.886;2023-05-29T02:23:40;101293.44;;;14.34;71.13
13952;BME280;39535;52.192;9.886;2023-05-29T02:26:06;101296.19;;;14.27;71.05
13952;BME280;39535;52.192;9.886;2023-05-29T02:28:33;101291.84;;;14.25;70.83
13952;BME280;39535;52.192;9.886;2023-05-29T02:31:01;101307.09;;;14.07;70.59
13952;BME280;39535;52.192;9.886;2023-05-29T02:33:28;101315.78;;;14.09;70.96
13952;BME280;39535;52.192;9.886;2023-05-29T02:35:56;101306.28;;;14.04;71.31
13952;BME280;39535;52.192;9.886;2023-05-29T02:38:22;101302.84;;;14.00;71.07
13952;BME280;39535;52.192;9.886;2023-05-29T02:40:48;101315.25;;;13.92;71.34
13952;BME280;39535;52.192;9.886;2023-05-29T02:43:15;101310.00;;;13.90;71.71
13952;BME280;39535;52.192;9.886;2023-05-29T02:45:41;101310.88;;;13.91;71.48
13952;BME280;39535;52.192;9.886;2023-05-29T02:48:07;101316.19;;;13.89;71.33
13952;BME280;39535;52.192;9.886;2023-05-29T02:50:34;101312.84;;;13.80;71.51
13952;BME280;39535;52.192;9.886;2023-05-29T02:53:01;101314.47;;;13.85;71.20
13952;BME280;39535;52.192;9.886;2023-05-29T02:55:28;101318.00;;;13.84;71.27
13952;BME280;39535;52.192;9.886;2023-05-29T02:57:57;101312.81;;;13.81;71.87
13952;BME280;39535;52.192;9.886;2023-05-29T03:00:25;101296.16;;;13.84;71.89
13952;BME280;39535;52.192;9.886;2023-05-29T03:02:51;101294.53;;;13.75;71.81
13952;BME280;39535;52.192;9.886;2023-05-29T03:05:17;101290.25;;;13.71;72.50
13952;BME280;39535;52.192;9.886;2023-05-29T03:07:44;101292.00;;;13.70;71.54
13952;BME280;39535;52.192;9.886;2023-05-29T03:10:12;101305.19;;;13.67;71.98
13952;BME280;39535;52.192;9.886;2023-05-29T03:12:42;101299.28;;;13.55;72.54
13952;BME280;39535;52.192;9.886;2023-05-29T03:15:09;101287.00;;;13.58;72.46
13952;BME280;39535;52.192;9.886;2023-05-29T03:17:36;101295.84;;;13.53;72.19
13952;BME280;39535;52.192;9.886;2023-05-29T03:20:04;101287.06;;;13.54;72.48
13952;BME280;39535;52.192;9.886;2023-05-29T03:22:31;101295.97;;;13.43;72.06
13952;BME280;39535;52.192;9.886;2023-05-29T03:24:58;101295.13;;;13.41;72.74
13952;BME280;39535;52.192;9.886;2023-05-29T03:27:25;101295.97;;;13.45;72.56
13952;BME280;39535;52.192;9.886;2023-05-29T03:29:52;101294.25;;;13.44;72.72
13952;BME280;39535;52.192;9.886;2023-05-29T03:32:19;101282.09;;;13.38;73.32
13952;BME280;39535;52.192;9.886;2023-05-29T03:34:46;101286.63;;;13.25;73.32
13952;BME280;39535;52.192;9.886;2023-05-29T03:37:12;101275.28;;;13.26;73.50
13952;BME280;39535;52.192;9.886;2023-05-29T03:39:39;101262.19;;;13.25;73.60
13952;BME280;39535;52.192;9.886;2023-05-29T03:42:05;101263.91;;;13.26;74.21
13952;BME280;39535;52.192;9.886;2023-05-29T03:44:33;101253.41;;;13.26;73.84
13952;BME280;39535;52.192;9.886;2023-05-29T03:46:59;101249.09;;;13.22;74.14
13952;BME280;39535;52.192;9.886;2023-05-29T03:49:26;101256.19;;;13.17;73.66
13952;BME280;39535;52.192;9.886;2023-05-29T03:51:52;101261.50;;;13.12;73.38
13952;BME280;39535;52.192;9.886;2023-05-29T03:54:18;101272.91;;;13.09;73.84
13952;BME280;39535;52.192;9.886;2023-05-29T03:56:45;101279.94;;;13.07;73.48
13952;BME280;39535;52.192;9.886;2023-05-29T03:59:11;101289.69;;;12.99;73.33
13952;BME280;39535;52.192;9.886;2023-05-29T04:01:39;101283.91;;;12.74;74.70
13952;BME280;39535;52.192;9.886;2023-05-29T04:04:06;101274.72;;;12.47;75.50
13952;BME280;39535;52.192;9.886;2023-05-29T04:06:32;101246.88;;;12.38;76.38
13952;BME280;39535;52.192;9.886;2023-05-29T04:08:58;101212.06;;;12.33;76.63
13952;BME280;39535;52.192;9.886;2023-05-29T04:11:25;101188.81;;;12.07;78.20
13952;BME280;39535;52.192;9.886;2023-05-29T04:13:51;101162.81;;;11.95;78.99
13952;BME280;39535;52.192;9.886;2023-05-29T04:16:17;101137.59;;;11.90;79.26
13952;BME280;39535;52.192;9.886;2023-05-29T04:18:45;101115.47;;;11.45;81.15
13952;BME280;39535;52.192;9.886;2023-05-29T04:21:11;101073.81;;;11.31;82.35
13952;BME280;39535;52.192;9.886;2023-05-29T04:23:38;101039.69;;;11.42;82.38
13952;BME280;39535;52.192;9.886;2023-05-29T04:26:04;101041.31;;;11.52;81.98
13952;BME280;39535;52.192;9.886;2023-05-29T04:28:31;101046.34;;;11.66;80.94
13952;BME280;39535;52.192;9.886;2023-05-29T04:30:57;101063.91;;;11.56;81.25
13952;BME280;39535;52.192;9.886;2023-05-29T04:33:24;101053.53;;;11.48;81.78
13952;BME280;39535;52.192;9.886;2023-05-29T04:35:52;101047.91;;;11.11;83.59
13952;BME280;39535;52.192;9.886;2023-05-29T04:38:18;101009.00;;;10.85;85.65
13952;BME280;39535;52.192;9.886;2023-05-29T04:40:50;100974.22;;;10.80;86.47
13952;BME280;39535;52.192;9.886;2023-05-29T04:43:16;100943.78;;;10.80;87.12
13952;BME280;39535;52.192;9.886;2023-05-29T04:45:42;100949.91;;;10.76;87.18
13952;BME280;39535;52.192;9.886;2023-05-29T04:48:09;100949.72;;;10.93;86.53
13952;BME280;39535;52.192;9.886;2023-05-29T04:50:35;100965.13;;;11.13;85.77
13952;BME280;39535;52.192;9.886;2023-05-29T04:53:05;100980.00;;;11.08;85.34
13952;BME280;39535;52.192;9.886;2023-05-29T04:55:31;100991.19;;;11.18;85.65
13952;BME280;39535;52.192;9.886;2023-05-29T04:57:58;101000.78;;;11.17;85.09
13952;BME280;39535;52.192;9.886;2023-05-29T05:00:25;101012.84;;;11.27;85.21
13952;BME280;39535;52.192;9.886;2023-05-29T05:02:52;101006.22;;;11.00;86.54
13952;BME280;39535;52.192;9.886;2023-05-29T05:05:19;100994.97;;;10.92;87.54
13952;BME280;39535;52.192;9.886;2023-05-29T05:07:46;100971.59;;;10.83;88.76
13952;BME280;39535;52.192;9.886;2023-05-29T05:10:13;100961.06;;;10.90;88.84
13952;BME280;39535;52.192;9.886;2023-05-29T05:12:40;100952.47;;;10.81;89.93
13952;BME280;39535;52.192;9.886;2023-05-29T05:15:07;100933.34;;;10.77;90.53
13952;BME280;39535;52.192;9.886;2023-05-29T05:17:34;100917.84;;;10.63;91.71
13952;BME280;39535;52.192;9.886;2023-05-29T05:20:00;100912.53;;;10.72;91.65
13952;BME280;39535;52.192;9.886;2023-05-29T05:22:28;100906.59;;;10.58;92.39
13952;BME280;39535;52.192;9.886;2023-05-29T05:24:55;100911.03;;;10.53;92.71
13952;BME280;39535;52.192;9.886;2023-05-29T05:27:23;100902.44;;;10.40;94.01
13952;BME280;39535;52.192;9.886;2023-05-29T05:29:49;100883.28;;;10.43;94.81
13952;BME280;39535;52.192;9.886;2023-05-29T05:32:16;100868.50;;;10.43;95.49
13952;BME280;39535;52.192;9.886;2023-05-29T05:34:42;100865.88;;;10.45;95.32
13952;BME280;39535;52.192;9.886;2023-05-29T05:37:08;100876.09;;;10.62;95.36
13952;BME280;39535;52.192;9.886;2023-05-29T05:39:35;100863.94;;;10.59;96.03
13952;BME280;39535;52.192;9.886;2023-05-29T05:42:01;100867.09;;;10.86;96.20
13952;BME280;39535;52.192;9.886;2023-05-29T05:44:29;100878.84;;;11.18;95.46
13952;BME280;39535;52.192;9.886;2023-05-29T05:46:55;100918.53;;;11.46;93.80
13952;BME280;39535;52.192;9.886;2023-05-29T05:49:21;100958.16;;;11.76;91.46
13952;BME280;39535;52.192;9.886;2023-05-29T05:51:48;101012.34;;;11.66;89.17
13952;BME280;39535;52.192;9.886;2023-05-29T05:54:15;101040.97;;;11.75;88.87
13952;BME280;39535;52.192;9.886;2023-05-29T05:56:41;101065.41;;;11.76;88.65
13952;BME280;39535;52.192;9.886;2023-05-29T05:59:08;101073.09;;;11.86;88.98
13952;BME280;39535;52.192;9.886;2023-05-29T06:01:36;101072.94;;;11.99;88.70
13952;BME280;39535;52.192;9.886;2023-05-29T06:04:03;101100.56;;;12.20;87.27
13952;BME280;39535;52.192;9.886;2023-05-29T06:06:30;101135.25;;;12.32;86.18
13952;BME280;39535;52.192;9.886;2023-05-29T06:08:57;101170.69;;;12.57;84.15
13952;BME280;39535;52.192;9.886;2023-05-29T06:11:23;101188.22;;;12.53;84.49
13952;BME280;39535;52.192;9.886;2023-05-29T06:13:50;101201.81;;;12.77;84.42
13952;BME280;39535;52.192;9.886;2023-05-29T06:16:17;101222.59;;;12.87;83.56
13952;BME280;39535;52.192;9.886;2023-05-29T06:18:45;101280.88;;;13.03;79.64
13952;BME280;39535;52.192;9.886;2023-05-29T06:21:12;101350.50;;;13.20;76.54
13952;BME280;39535;52.192;9.886;2023-05-29T06:23:38;101410.69;;;13.32;75.38
13952;BME280;39535;52.192;9.886;2023-05-29T06:26:06;101446.56;;;13.25;74.95
13952;BME280;39535;52.192;9.886;2023-05-29T06:28:33;101474.56;;;13.23;74.69
13952;BME280;39535;52.192;9.886;2023-05-29T06:30:59;101497.25;;;13.30;74.50
13952;BME280;39535;52.192;9.886;2023-05-29T06:33:25;101500.53;;;13.46;74.29
13952;BME280;39535;52.192;9.886;2023-05-29T06:35:53;101520.41;;;13.63;73.57
13952;BME280;39535;52.192;9.886;2023-05-29T06:38:19;101552.63;;;13.73;72.57
13952;BME280;39535;52.192;9.886;2023-05-29T06:40:46;101564.88;;;13.72;73.08
13952;BME280;39535;52.192;9.886;2023-05-29T06:43:12;101566.88;;;13.55;73.11
13952;BME280;39535;52.192;9.886;2023-05-29T06:45:39;101574.75;;;13.53;73.46
13952;BME280;39535;52.192;9.886;2023-05-29T06:48:05;101569.41;;;13.59;72.57
13952;BME280;39535;52.192;9.886;2023-05-29T06:50:32;101576.41;;;13.62;72.54
13952;BME280;39535;52.192;9.886;2023-05-29T06:53:00;101562.25;;;13.72;72.64
13952;BME280;39535;52.192;9.886;2023-05-29T06:55:27;101586.63;;;13.82;72.49
13952;BME280;39535;52.192;9.886;2023-05-29T06:57:53;101576.81;;;13.93;72.21
13952;BME280;39535;52.192;9.886;2023-05-29T07:00:20;101609.16;;;13.97;70.48
13952;BME280;39535;52.192;9.886;2023-05-29T07:02:46;101636.22;;;14.00;70.89
13952;BME280;39535;52.192;9.886;2023-05-29T07:05:12;101638.81;;;14.03;71.44
13952;BME280;39535;52.192;9.886;2023-05-29T07:07:39;101651.81;;;14.11;70.24
13952;BME280;39535;52.192;9.886;2023-05-29T07:10:07;101658.66;;;14.23;70.60
13952;BME280;39535;52.192;9.886;2023-05-29T07:12:33;101648.88;;;14.33;70.37
13952;BME280;39535;52.192;9.886;2023-05-29T07:15:00;101672.47;;;14.37;69.51
13952;BME280;39535;52.192;9.886;2023-05-29T07:17:26;101684.72;;;14.37;69.55
13952;BME280;39535;52.192;9.886;2023-05-29T07:19:52;101682.91;;;14.40;69.65
13952;BME280;39535;52.192;9.886;2023-05-29T07:22:19;101684.50;;;14.52;69.78
13952;BME280;39535;52.192;9.886;2023-05-29T07:24:45;101692.34;;;14.57;69.43
13952;BME280;39535;52.192;9.886;2023-05-29T07:27:13;101686.22;;;14.56;69.60
13952;BME280;39535;52.192;9.886;2023-05-29T07:29:40;101691.38;;;14.62;68.93
13952;BME280;39535;52.192;9.886;2023-05-29T07:32:06;101703.53;;;14.69;68.57
13952;BME280;39535;52.192;9.886;2023-05-29T07:34:32;101711.34;;;14.74;68.18
13952;BME280;39535;52.192;9.886;2023-05-29T07:37:01;101710.66;;;14.63;69.31
13952;BME280;39535;52.192;9.886;2023-05-29T07:39:27;101707.31;;;14.50;69.94
13952;BME280;39535;52.192;9.886;2023-05-29T07:41:54;101674.63;;;14.69;69.09
13952;BME280;39535;52.192;9.886;2023-05-29T07:44:21;101692.06;;;14.77;68.99
13952;BME280;39535;52.192;9.886;2023-05-29T07:46:48;101697.19;;;14.83;68.37
13952;BME280;39535;52.192;9.886;2023-05-29T07:49:14;101699.78;;;14.84;68.17
13952;BME280;39535;52.192;9.886;2023-05-29T07:51:41;101708.84;;;14.66;68.48
13952;BME280;39535;52.192;9.886;2023-05-29T07:54:07;101692.78;;;14.85;69.03
13952;BME280;39535;52.192;9.886;2023-05-29T07:56:33;101698.00;;;14.86;68.46
13952;BME280;39535;52.192;9.886;2023-05-29T07:59:00;101702.34;;;14.91;67.79
13952;BME280;39535;52.192;9.886;2023-05-29T08:01:28;101702.56;;;14.77;68.37
13952;BME280;39535;52.192;9.886;2023-05-29T08:03:55;101708.38;;;14.94;68.07
13952;BME280;39535;52.192;9.886;2023-05-29T08:06:21;101704.97;;;14.89;68.41
13952;BME280;39535;52.192;9.886;2023-05-29T08:08:47;101701.22;;;15.04;67.15
13952;BME280;39535;52.192;9.886;2023-05-29T08:11:14;101728.41;;;15.03;67.46
13952;BME280;39535;52.192;9.886;2023-05-29T08:13:40;101726.25;;;14.74;66.48
13952;BME280;39535;52.192;9.886;2023-05-29T08:16:06;101727.63;;;14.96;67.51
13952;BME280;39535;52.192;9.886;2023-05-29T08:18:34;101721.25;;;15.13;68.09
13952;BME280;39535;52.192;9.886;2023-05-29T08:21:01;101726.22;;;15.28;66.78
13952;BME280;39535;52.192;9.886;2023-05-29T08:23:28;101746.13;;;15.44;66.13
13952;BME280;39535;52.192;9.886;2023-05-29T08:25:54;101765.13;;;15.60;64.34
13952;BME280;39535;52.192;9.886;2023-05-29T08:28:21;101775.53;;;15.66;65.78
13952;BME280;39535;52.192;9.886;2023-05-29T08:30:47;101778.81;;;15.79;65.38
13952;BME280;39535;52.192;9.886;2023-05-29T08:33:14;101771.03;;;15.75;65.56
13952;BME280;39535;52.192;9.886;2023-05-29T08:35:41;101805.97;;;15.83;63.14
13952;BME280;39535;52.192;9.886;2023-05-29T08:38:08;101825.09;;;15.93;62.50
13952;BME280;39535;52.192;9.886;2023-05-29T08:40:35;101856.66;;;15.96;62.91
13952;BME280;39535;52.192;9.886;2023-05-29T08:43:06;101887.44;;;15.92;61.26
13952;BME280;39535;52.192;9.886;2023-05-29T08:45:35;101906.78;;;15.89;61.92
13952;BME280;39535;52.192;9.886;2023-05-29T08:48:06;101917.16;;;15.99;61.31
13952;BME280;39535;52.192;9.886;2023-05-29T08:50:34;101926.69;;;16.07;61.38
13952;BME280;39535;52.192;9.886;2023-05-29T08:53:03;101921.16;;;16.21;62.27
13952;BME280;39535;52.192;9.886;2023-05-29T08:55:31;101892.81;;;16.33;61.83
13952;BME280;39535;52.192;9.886;2023-05-29T08:57:57;101909.44;;;16.36;62.04
13952;BME280;39535;52.192;9.886;2023-05-29T09:00:24;101902.44;;;16.35;61.97
13952;BME280;39535;52.192;9.886;2023-05-29T09:02:54;101917.44;;;16.32;61.65
13952;BME280;39535;52.192;9.886;2023-05-29T09:05:20;101921.63;;;16.43;60.59
13952;BME280;39535;52.192;9.886;2023-05-29T09:07:47;101932.91;;;16.48;60.48
13952;BME280;39535;52.192;9.886;2023-05-29T09:10:16;101943.47;;;16.48;60.87
13952;BME280;39535;52.192;9.886;2023-05-29T09:12:47;101932.06;;;16.48;60.84
13952;BME280;39535;52.192;9.886;2023-05-29T09:15:19;101930.97;;;16.58;60.80
13952;BME280;39535;52.192;9.886;2023-05-29T09:17:49;101944.28;;;16.51;59.92
13952;BME280;39535;52.192;9.886;2023-05-29T09:20:16;101945.97;;;16.55;59.91
13952;BME280;39535;52.192;9.886;2023-05-29T09:22:52;101950.06;;;16.24;59.88
13952;BME280;39535;52.192;9.886;2023-05-29T09:25:21;101937.59;;;16.34;60.72
13952;BME280;39535;52.192;9.886;2023-05-29T09:27:51;101931.19;;;16.47;61.27
13952;BME280;39535;52.192;9.886;2023-05-29T09:30:31;101900.03;;;16.66;60.71
13952;BME280;39535;52.192;9.886;2023-05-29T09:32:59;101920.84;;;16.80;59.92
13952;BME280;39535;52.192;9.886;2023-05-29T09:35:31;101931.28;;;16.86;58.80
13952;BME280;39535;52.192;9.886;2023-05-29T09:37:58;101969.88;;;16.92;58.13
13952;BME280;39535;52.192;9.886;2023-05-29T09:40:26;101982.97;;;16.97;57.85
13952;BME280;39535;52.192;9.886;2023-05-29T09:42:53;101987.34;;;16.98;58.81
13952;BME280;39535;52.192;9.886;2023-05-29T09:45:21;102004.81;;;17.03;57.46
13952;BME280;39535;52.192;9.886;2023-05-29T09:47:50;102021.34;;;17.12;59.22
13952;BME280;39535;52.192;9.886;2023-05-29T09:50:20;101993.88;;;17.22;58.33
13952;BME280;39535;52.192;9.886;2023-05-29T09:52:51;102016.03;;;17.15;57.76
13952;BME280;39535;52.192;9.886;2023-05-29T09:55:20;101998.03;;;17.32;57.71
13952;BME280;39535;52.192;9.886;2023-05-29T09:57:48;102008.66;;;17.31;57.52
13952;BME280;39535;52.192;9.886;2023-05-29T10:00:15;102004.28;;;17.28;58.58
13952;BME280;39535;52.192;9.886;2023-05-29T10:02:43;101987.31;;;17.40;57.18
13952;BME280;39535;52.192;9.886;2023-05-29T10:05:10;102012.28;;;17.25;56.46
13952;BME280;39535;52.192;9.886;2023-05-29T10:07:37;102026.75;;;17.47;56.40
13952;BME280;39535;52.192;9.886;2023-05-29T10:10:07;102045.06;;;17.55;55.73
13952;BME280;39535;52.192;9.886;2023-05-29T10:12:36;102048.34;;;17.66;57.08
13952;BME280;39535;52.192;9.886;2023-05-29T10:15:11;102038.38;;;17.78;56.06
13952;BME280;39535;52.192;9.886;2023-05-29T10:17:38;102048.75;;;17.87;56.47
13952;BME280;39535;52.192;9.886;2023-05-29T10:20:09;102055.72;;;17.91;55.36
13952;BME280;39535;52.192;9.886;2023-05-29T10:22:45;102076.97;;;17.86;54.45
13952;BME280;39535;52.192;9.886;2023-05-29T10:25:13;102075.97;;;17.91;55.69
13952;BME280;39535;52.192;9.886;2023-05-29T10:27:39;102083.00;;;17.92;54.31
13952;BME280;39535;52.192;9.886;2023-05-29T10:30:12;102112.97;;;17.91;53.08
13952;BME280;39535;52.192;9.886;2023-05-29T10:32:52;102118.16;;;17.94;54.66
13952;BME280;39535;52.192;9.886;2023-05-29T10:35:28;102113.63;;;18.00;53.16
13952;BME280;39535;52.192;9.886;2023-05-29T10:38:02;102132.31;;;17.91;52.13
13952;BME280;39535;52.192;9.886;2023-05-29T10:40:30;102155.13;;;17.95;52.70
13952;BME280;39535;52.192;9.886;2023-05-29T10:42:56;102146.03;;;18.09;52.93
13952;BME280;39535;52.192;9.886;2023-05-29T10:45:50;102137.13;;;18.13;53.04
13952;BME280;39535;52.192;9.886;2023-05-29T10:48:39;102123.44;;;17.94;52.02
13952;BME280;39535;52.192;9.886;2023-05-29T10:51:07;102133.16;;;17.93;53.06
13952;BME280;39535;52.192;9.886;2023-05-29T10:53:34;102140.06;;;18.00;51.90
13952;BME280;39535;52.192;9.886;2023-05-29T10:56:08;102142.59;;;18.03;51.01
13952;BME280;39535;52.192;9.886;2023-05-29T10:58:34;102157.81;;;18.31;52.09
13952;BME280;39535;52.192;9.886;2023-05-29T11:01:02;102171.84;;;18.35;51.67
13952;BME280;39535;52.192;9.886;2023-05-29T11:03:30;102173.19;;;18.53;50.35
13952;BME280;39535;52.192;9.886;2023-05-29T11:05:57;102185.28;;;18.63;51.10
13952;BME280;39535;52.192;9.886;2023-05-29T11:08:29;102169.63;;;18.55;49.97
13952;BME280;39535;52.192;9.886;2023-05-29T11:10:58;102204.50;;;18.71;50.77
13952;BME280;39535;52.192;9.886;2023-05-29T11:13:26;102209.63;;;18.41;50.14
13952;BME280;39535;52.192;9.886;2023-05-29T11:16:19;102219.44;;;18.35;51.06
13952;BME280;39535;52.192;9.886;2023-05-29T11:18:47;102178.28;;;18.60;50.76
13952;BME280;39535;52.192;9.886;2023-05-29T11:21:44;102181.25;;;18.84;50.08
13952;BME280;39535;52.192;9.886;2023-05-29T11:24:21;102205.38;;;19.06;48.78
13952;BME280;39535;52.192;9.886;2023-05-29T11:26:48;102225.97;;;19.29;48.28
13952;BME280;39535;52.192;9.886;2023-05-29T11:29:14;102245.53;;;19.23;47.81
13952;BME280;39535;52.192;9.886;2023-05-29T11:31:43;102244.56;;;19.92;47.77
13952;BME280;39535;52.192;9.886;2023-05-29T11:34:14;102266.41;;;20.88;45.80
13952;BME280;39535;52.192;9.886;2023-05-29T11:36:41;102329.56;;;21.58;44.17
13952;BME280;39535;52.192;9.886;2023-05-29T11:39:09;102410.28;;;21.55;42.93
13952;BME280;39535;52.192;9.886;2023-05-29T11:41:35;102456.72;;;22.22;40.89
13952;BME280;39535;52.192;9.886;2023-05-29T11:44:04;102527.50;;;22.01;40.17
13952;BME280;39535;52.192;9.886;2023-05-29T11:46:31;102522.06;;;23.50;40.60
13952;BME280;39535;52.192;9.886;2023-05-29T11:49:01;102547.19;;;24.11;37.87
13952;BME280;39535;52.192;9.886;2023-05-29T11:51:27;102608.03;;;24.86;37.32
13952;BME280;39535;52.192;9.886;2023-05-29T11:53:54;102663.50;;;24.80;35.46
13952;BME280;39535;52.192;9.886;2023-05-29T11:56:24;102718.50;;;23.97;36.25
13952;BME280;39535;52.192;9.886;2023-05-29T11:58:51;102750.56;;;23.23;38.15
13952;BME280;39535;52.192;9.886;2023-05-29T12:01:20;102686.03;;;23.86;37.81
13952;BME280;39535;52.192;9.886;2023-05-29T12:03:49;102665.50;;;24.10;36.49
13952;BME280;39535;52.192;9.886;2023-05-29T12:06:30;102667.31;;;23.64;38.71
13952;BME280;39535;52.192;9.886;2023-05-29T12:08:57;102617.16;;;23.73;38.15
13952;BME280;39535;52.192;9.886;2023-05-29T12:11:23;102620.13;;;23.42;38.17
13952;BME280;39535;52.192;9.886;2023-05-29T12:13:55;102595.19;;;23.67;38.20
13952;BME280;39535;52.192;9.886;2023-05-29T12:16:21;102572.88;;;24.34;38.10
13952;BME280;39535;52.192;9.886;2023-05-29T12:18:51;102572.78;;;23.94;37.79
13952;BME280;39535;52.192;9.886;2023-05-29T12:21:21;102545.88;;;23.78;38.58
13952;BME280;39535;52.192;9.886;2023-05-29T12:23:51;102580.88;;;21.95;39.97
13952;BME280;39535;52.192;9.886;2023-05-29T12:26:18;102521.25;;;22.29;40.86
13952;BME280;39535;52.192;9.886;2023-05-29T12:28:48;102478.56;;;22.32;40.18
13952;BME280;39535;52.192;9.886;2023-05-29T12:31:26;102470.31;;;22.39;41.65
13952;BME280;39535;52.192;9.886;2023-05-29T12:33:53;102443.25;;;22.28;41.25
13952;BME280;39535;52.192;9.886;2023-05-29T12:36:25;102447.88;;;21.96;40.01
13952;BME280;39535;52.192;9.886;2023-05-29T12:38:52;102434.81;;;22.14;41.21
13952;BME280;39535;52.192;9.886;2023-05-29T12:41:25;102425.78;;;21.68;41.76
13952;BME280;39535;52.192;9.886;2023-05-29T12:43:53;102401.34;;;21.30;41.53
13952;BME280;39535;52.192;9.886;2023-05-29T12:46:20;102379.28;;;21.81;42.44
13952;BME280;39535;52.192;9.886;2023-05-29T12:48:46;102322.63;;;22.28;40.70
13952;BME280;39535;52.192;9.886;2023-05-29T12:51:13;102384.78;;;22.00;40.28
13952;BME280;39535;52.192;9.886;2023-05-29T12:53:41;102404.13;;;22.30;40.44